createdAt,value
2018-10-19T00:04:00.304Z,85.6
2018-10-19T00:09:02.745Z,85.7
2018-10-19T00:14:05.296Z,85.6
2018-10-19T00:19:07.615Z,85.8
2018-10-19T00:24:10.053Z,85.7
2018-10-19T00:29:12.673Z,85.7
2018-10-19T00:34:14.938Z,85.8
2018-10-19T00:39:17.473Z,85.9
2018-10-19T00:44:19.835Z,85.9
2018-10-19T00:49:22.249Z,86
2018-10-19T00:54:24.690Z,86
2018-10-19T00:59:27.188Z,86.1
2018-10-19T01:04:29.581Z,86.2
2018-10-19T01:09:32.041Z,86.3
2018-10-19T01:14:34.473Z,86.2
2018-10-19T01:19:36.907Z,86.3
2018-10-19T01:24:39.341Z,86.9
2018-10-19T01:29:41.798Z,87.1
2018-10-19T01:34:44.232Z,87.3
2018-10-19T01:39:46.661Z,87.3
2018-10-19T01:44:49.105Z,87.3
2018-10-19T01:49:51.550Z,87.3
2018-10-19T01:54:53.975Z,87.5
2018-10-19T01:59:56.422Z,87.4
2018-10-19T02:04:58.865Z,87.5
2018-10-19T02:10:01.391Z,87.6
2018-10-19T02:15:03.822Z,87.7
2018-10-19T02:20:06.211Z,87.7
2018-10-19T02:25:08.629Z,87.8
2018-10-19T02:30:11.150Z,87.9
2018-10-19T02:35:13.585Z,88
2018-10-19T02:40:15.950Z,88
2018-10-19T02:45:18.489Z,88.1
2018-10-19T02:50:20.822Z,88.2
2018-10-19T02:55:23.270Z,88.3
2018-10-19T03:00:25.744Z,88.5
2018-10-19T03:05:28.150Z,88.8
2018-10-19T03:10:30.618Z,89
2018-10-19T03:15:33.037Z,89.3
2018-10-19T03:20:35.474Z,89.6
2018-10-19T03:25:37.922Z,89.7
2018-10-19T03:30:40.523Z,89.7
2018-10-19T03:35:42.782Z,89.7
2018-10-19T03:40:45.219Z,90
2018-10-19T03:45:47.669Z,89.9
2018-10-19T03:50:50.100Z,89.7
2018-10-19T03:55:52.575Z,89.7
2018-10-19T04:00:55.040Z,89.7
2018-10-19T04:05:57.475Z,89.7
2018-10-19T04:11:00.045Z,89.7
2018-10-19T04:16:02.445Z,89.7
2018-10-19T04:21:04.863Z,89.7
2018-10-19T04:26:12.262Z,89.8
2018-10-19T04:31:09.762Z,89.8
2018-10-19T04:36:12.263Z,90
2018-10-19T04:41:14.754Z,90.2
2018-10-19T04:46:17.041Z,90.2
2018-10-19T04:51:19.402Z,90.3
2018-10-19T04:56:21.850Z,90.3
2018-10-19T05:01:24.289Z,90.4
2018-10-19T05:06:26.791Z,90.5
2018-10-19T05:11:29.149Z,90.5
2018-10-19T05:16:31.603Z,90.6
2018-10-19T05:21:34.044Z,90.7
2018-10-19T05:26:36.478Z,90.6
2018-10-19T05:31:38.943Z,90.6
2018-10-19T05:36:41.358Z,90.5
2018-10-19T05:41:43.801Z,90.5
2018-10-19T05:46:46.240Z,90.5
2018-10-19T05:51:48.674Z,90.4
2018-10-19T05:56:51.132Z,90.4
2018-10-19T06:01:53.583Z,90.5
2018-10-19T06:06:56.014Z,90.4
2018-10-19T06:11:58.437Z,90.5
2018-10-19T06:17:00.947Z,90.5
2018-10-19T06:22:03.347Z,90.6
2018-10-19T06:27:05.760Z,90.5
2018-10-19T06:32:08.265Z,90.5
2018-10-19T06:37:10.642Z,90.6
2018-10-19T06:42:13.092Z,90.5
2018-10-19T06:47:15.661Z,90.3
2018-10-19T06:52:17.993Z,90.4
2018-10-19T06:57:20.409Z,90.4
2018-10-19T07:02:22.839Z,90.3
2018-10-19T07:07:25.294Z,90.3
2018-10-19T07:12:27.715Z,90.2
2018-10-19T07:17:30.202Z,90.2
2018-10-19T07:22:32.609Z,90.1
2018-10-19T07:27:35.041Z,90.1
2018-10-19T07:32:37.525Z,90
2018-10-19T07:37:39.928Z,90
2018-10-19T07:42:42.364Z,89.8
2018-10-19T07:47:44.970Z,89.8
2018-10-19T07:52:47.298Z,89.8
2018-10-19T07:57:49.689Z,89.7
2018-10-19T08:02:52.130Z,89.7
2018-10-19T08:07:54.589Z,89.4
2018-10-19T08:12:57.013Z,89.2
2018-10-19T08:17:59.453Z,89.2
2018-10-19T08:23:02.134Z,89.1
2018-10-19T08:28:04.359Z,89.1
2018-10-19T08:33:06.790Z,89
2018-10-19T08:38:09.217Z,88.8
2018-10-19T08:43:11.751Z,88.7
2018-10-19T08:48:14.122Z,88.3
2018-10-19T08:53:16.639Z,88.2
2018-10-19T08:58:19.088Z,88
2018-10-19T09:03:21.497Z,87.9
2018-10-19T09:08:23.923Z,87.7
2018-10-19T09:13:26.289Z,87.6
2018-10-19T09:18:28.824Z,87.7
2018-10-19T09:23:31.203Z,87.6
2018-10-19T09:28:33.629Z,87.6
2018-10-19T09:33:36.065Z,87.4
2018-10-19T09:38:38.510Z,87.5
2018-10-19T09:43:40.932Z,87.6
2018-10-19T09:53:45.814Z,87.1
2018-10-19T09:58:48.251Z,86.8
2018-10-19T10:03:50.701Z,86.9
2018-10-19T10:08:53.166Z,86.6
2018-10-19T10:13:55.574Z,86.3
2018-10-19T10:18:58.100Z,86.5
2018-10-19T10:24:00.465Z,86.4
2018-10-19T10:29:02.895Z,86.3
2018-10-19T10:34:05.365Z,86.1
2018-10-19T10:39:07.892Z,86.1
2018-10-19T10:44:10.231Z,86
2018-10-19T10:49:12.788Z,85.8
2018-10-19T10:54:15.105Z,85.7
2018-10-19T10:59:17.552Z,85.8
2018-10-19T11:04:20.003Z,86
2018-10-19T11:09:22.476Z,85.9
2018-10-19T11:14:24.862Z,86
2018-10-19T11:19:27.303Z,86.2
2018-10-19T11:24:29.764Z,86.4
2018-10-19T11:29:32.195Z,86.6
2018-10-19T11:34:34.661Z,86.8
2018-10-19T11:39:37.091Z,86.8
2018-10-19T11:44:39.506Z,86.7
2018-10-19T11:49:41.936Z,86.9
2018-10-19T11:54:44.394Z,86.9
2018-10-19T11:59:46.853Z,86.8
2018-10-19T12:04:49.283Z,87.1
2018-10-19T12:09:51.702Z,87.1
2018-10-19T12:14:54.160Z,87.2
2018-10-19T12:19:56.608Z,87.2
2018-10-19T12:24:59.055Z,87.1
2018-10-19T12:30:01.562Z,87.1
2018-10-19T12:35:03.902Z,87.2
2018-10-19T12:40:06.349Z,87.3
2018-10-19T12:45:08.848Z,87.1
2018-10-19T12:50:11.246Z,86.9
2018-10-19T12:55:13.849Z,86.7
2018-10-19T13:00:16.119Z,86.4
2018-10-19T13:05:18.569Z,86.3
2018-10-19T13:10:20.990Z,86.2
2018-10-19T13:15:23.438Z,86
2018-10-19T13:20:25.871Z,86.2
2018-10-19T13:25:28.321Z,86.2
2018-10-19T13:30:30.851Z,86.1
2018-10-19T13:35:33.192Z,86
2018-10-19T13:40:35.653Z,85.8
2018-10-19T13:45:38.079Z,85.9
2018-10-19T13:50:40.507Z,86
2018-10-19T13:55:42.964Z,86
2018-10-19T14:00:45.404Z,86.1
2018-10-19T14:05:47.878Z,86
2018-10-19T14:10:50.282Z,85.9
2018-10-19T14:15:52.726Z,85.9
2018-10-19T14:20:55.264Z,86.1
2018-10-19T14:25:57.671Z,86
2018-10-19T14:31:00.124Z,86.1
2018-10-19T14:36:02.489Z,86.3
2018-10-19T14:41:05.068Z,86.3
2018-10-19T14:46:07.386Z,86.3
2018-10-19T14:51:09.841Z,86.5
2018-10-19T14:56:12.243Z,86.4
2018-10-19T15:01:14.762Z,86.5
2018-10-19T15:06:17.109Z,86.8
2018-10-19T15:11:19.793Z,86.9
2018-10-19T15:16:22.015Z,86.8
2018-10-19T15:21:24.435Z,86.9
2018-10-19T15:26:26.926Z,87
2018-10-19T15:31:29.327Z,87.1
2018-10-19T15:36:31.801Z,87.2
2018-10-19T15:41:34.201Z,87.2
2018-10-19T15:46:36.748Z,87.3
2018-10-19T15:51:39.097Z,87.3
2018-10-19T15:56:41.576Z,87.4
2018-10-19T16:01:43.974Z,87.3
2018-10-19T16:06:46.409Z,87.4
2018-10-19T16:11:48.843Z,87.4
2018-10-19T16:16:51.278Z,87.6
2018-10-19T16:21:53.716Z,87.7
2018-10-19T16:26:56.192Z,87.7
2018-10-19T16:31:58.606Z,87.8
2018-10-19T16:37:01.042Z,87.8
2018-10-19T16:42:03.675Z,87.8
2018-10-19T16:47:05.925Z,87.8
2018-10-19T16:52:08.400Z,87.8
2018-10-19T16:57:10.873Z,87.9
2018-10-19T17:02:13.245Z,87.9
2018-10-19T17:07:15.734Z,88
2018-10-19T17:12:18.132Z,87.9
2018-10-19T17:17:20.566Z,87.9
2018-10-19T17:22:23.002Z,87.9
2018-10-19T17:27:25.458Z,87.9
2018-10-19T17:32:27.900Z,87.9
2018-10-19T17:37:30.427Z,87.8
2018-10-19T17:42:32.768Z,87.8
2018-10-19T17:47:35.233Z,87.8
2018-10-19T17:52:37.654Z,87.8
2018-10-19T17:57:40.128Z,87.7
2018-10-19T18:02:42.529Z,87.7
2018-10-19T18:07:44.975Z,87.7
2018-10-19T18:12:47.503Z,87.7
2018-10-19T18:17:49.898Z,87.7
2018-10-19T18:22:52.392Z,87.8
2018-10-19T18:27:54.737Z,87.7
2018-10-19T18:32:57.157Z,87.8
2018-10-19T18:37:59.669Z,87.9
2018-10-19T18:43:02.117Z,88
2018-10-19T18:48:04.529Z,87.9
2018-10-19T18:53:07.050Z,88
2018-10-19T18:58:09.399Z,88
2018-10-19T19:03:11.820Z,88.1
2018-10-19T19:08:14.364Z,88.1
2018-10-19T19:13:16.683Z,88.2
2018-10-19T19:18:19.135Z,88.2
2018-10-19T19:23:21.568Z,88.2
2018-10-19T19:28:24.131Z,88.4
2018-10-19T19:33:26.455Z,88.4
2018-10-19T19:38:28.895Z,88.5
2018-10-19T19:43:31.346Z,88.5
2018-10-19T19:48:33.795Z,88.5
2018-10-19T19:53:36.207Z,88.5
2018-10-19T19:58:38.665Z,88.6
2018-10-19T20:03:41.113Z,88.7
2018-10-19T20:08:43.561Z,88.6
2018-10-19T20:13:45.973Z,88.6
2018-10-19T20:18:48.420Z,88.6
2018-10-19T20:23:50.860Z,88.6
2018-10-19T20:28:53.320Z,88.5
2018-10-19T20:33:55.736Z,88.6
2018-10-19T20:38:58.185Z,88.5
2018-10-19T20:44:00.714Z,88.5
2018-10-19T20:49:03.070Z,88.5
2018-10-19T20:54:05.581Z,88.6
2018-10-19T20:59:08.050Z,88.6
2018-10-19T21:04:10.396Z,88.6
2018-10-19T21:09:12.816Z,88.6
2018-10-19T21:14:15.347Z,88.4
2018-10-19T21:19:17.718Z,88.5
2018-10-19T21:24:20.134Z,88.5
2018-10-19T21:29:22.845Z,88.6
2018-10-19T21:34:25.014Z,88.5
2018-10-19T21:39:27.560Z,88.5
2018-10-19T21:44:29.905Z,88.6
2018-10-19T21:49:32.344Z,88.5
2018-10-19T21:54:34.777Z,88.6
2018-10-19T21:59:37.222Z,88.6
2018-10-19T22:04:39.701Z,88.6
2018-10-19T22:09:42.101Z,88.6
2018-10-19T22:14:44.606Z,88.6
2018-10-19T22:19:47.032Z,88.6
2018-10-19T22:24:49.440Z,88.5
2018-10-19T22:29:51.878Z,88.6
2018-10-19T22:34:54.332Z,88.6
2018-10-19T22:39:56.741Z,88.7
2018-10-19T22:44:59.187Z,88.7
2018-10-19T22:50:01.654Z,88.7
2018-10-19T22:55:04.102Z,88.8
2018-10-19T23:00:06.556Z,88.9
2018-10-19T23:05:09.022Z,88.9
2018-10-19T23:10:11.390Z,89
2018-10-19T23:15:13.828Z,89
2018-10-19T23:20:16.264Z,89
2018-10-19T23:25:18.702Z,89
2018-10-19T23:30:21.222Z,89
2018-10-19T23:35:23.587Z,89
2018-10-19T23:40:26.032Z,89
2018-10-19T23:45:28.467Z,89
2018-10-19T23:50:30.937Z,88.9
2018-10-19T23:55:33.341Z,88.9
